createdAt,value
2018-01-30T01:39:09.063Z,5.34
2018-01-30T01:39:09.630Z,5.43
2018-01-30T01:39:10.231Z,5.38
2018-01-30T01:39:10.827Z,5.40
2018-01-30T01:39:11.426Z,5.37
2018-01-30T01:39:12.027Z,5.45
2018-01-30T01:39:12.633Z,5.35
2018-01-30T01:40:07.092Z,5.46
2018-01-30T01:40:07.687Z,5.38
2018-01-30T01:40:08.286Z,5.48
2018-01-30T01:40:08.888Z,5.50
2018-01-30T01:40:09.487Z,5.50
2018-01-30T01:40:10.086Z,5.37
2018-01-30T01:40:10.686Z,5.34
2018-01-30T01:40:11.287Z,5.34
2018-01-30T01:41:04.743Z,5.49
2018-01-30T01:41:05.340Z,5.45
2018-01-30T01:41:05.942Z,5.38
2018-01-30T01:41:06.542Z,5.52
2018-01-30T01:41:07.139Z,5.40
2018-01-30T01:41:07.741Z,5.53
2018-01-30T01:41:08.339Z,5.43
2018-01-30T01:41:08.939Z,5.43
2018-01-30T01:42:02.396Z,5.38
2018-01-30T01:42:02.993Z,5.45
2018-01-30T01:42:03.592Z,5.37
2018-01-30T01:42:04.192Z,5.45
2018-01-30T01:42:04.792Z,5.45
2018-01-30T01:42:05.392Z,5.38
2018-01-30T01:42:05.992Z,5.45
2018-01-30T01:42:06.591Z,5.52
2018-01-30T01:43:00.049Z,5.50
2018-01-30T01:43:00.646Z,5.38
2018-01-30T01:43:01.244Z,5.38
2018-01-30T01:43:01.846Z,5.50
2018-01-30T01:43:02.447Z,5.37
2018-01-30T01:43:03.044Z,5.34
2018-01-30T01:43:03.642Z,5.43
2018-01-30T01:43:04.244Z,5.40
2018-01-30T01:43:58.723Z,5.34
2018-01-30T01:43:59.319Z,5.48
2018-01-30T01:43:59.921Z,5.48
2018-01-30T01:44:00.521Z,5.46
2018-01-30T01:44:01.120Z,5.48
2018-01-30T01:44:01.718Z,5.37
2018-01-30T01:44:02.319Z,5.48
2018-01-30T01:44:02.956Z,5.48
2018-01-30T01:44:56.411Z,5.52
2018-01-30T01:44:56.980Z,5.45
2018-01-30T01:44:57.574Z,5.45
2018-01-30T01:44:58.174Z,5.41
2018-01-30T01:44:58.773Z,5.40
2018-01-30T01:44:59.373Z,5.46
2018-01-30T01:44:59.973Z,5.45
2018-01-30T01:45:00.571Z,5.35
2018-01-30T01:45:54.116Z,5.45
2018-01-30T01:45:54.625Z,5.40
2018-01-30T01:45:55.226Z,5.38
2018-01-30T01:45:55.824Z,5.43
2018-01-30T01:45:56.426Z,5.45
2018-01-30T01:45:57.025Z,5.48
2018-01-30T01:45:57.624Z,5.45
2018-01-30T01:45:58.227Z,5.46
2018-01-30T01:46:51.681Z,5.49
2018-01-30T01:46:52.277Z,5.45
2018-01-30T01:46:52.878Z,5.52
2018-01-30T01:46:53.477Z,5.48
2018-01-30T01:46:54.077Z,5.49
2018-01-30T01:46:54.676Z,5.55
2018-01-30T01:46:55.277Z,5.46
2018-01-30T01:46:55.876Z,5.49
2018-01-30T01:47:50.356Z,5.49
2018-01-30T01:47:50.953Z,5.48
2018-01-30T01:47:51.551Z,5.45
2018-01-30T01:47:52.151Z,5.50
2018-01-30T01:47:52.753Z,5.50
2018-01-30T01:47:53.352Z,5.52
2018-01-30T01:47:53.952Z,5.52
2018-01-30T01:47:54.551Z,5.50
2018-01-30T01:48:48.008Z,5.53
2018-01-30T01:48:48.605Z,5.45
2018-01-30T01:48:49.204Z,5.50
2018-01-30T01:48:49.804Z,5.57
2018-01-30T01:48:50.405Z,5.52
2018-01-30T01:48:51.005Z,5.55
2018-01-30T01:48:51.604Z,5.55
2018-01-30T01:48:52.205Z,5.52
2018-01-30T01:49:45.660Z,5.52
2018-01-30T01:49:46.256Z,5.45
2018-01-30T01:49:46.857Z,5.57
2018-01-30T01:49:47.457Z,5.49
2018-01-30T01:49:48.056Z,5.57
2018-01-30T01:49:48.664Z,5.48
2018-01-30T01:49:49.258Z,5.49
2018-01-30T01:49:49.861Z,5.50
2018-01-30T01:50:44.366Z,5.59
2018-01-30T01:50:44.932Z,5.56
2018-01-30T01:50:45.532Z,5.63
2018-01-30T01:50:46.131Z,5.53
2018-01-30T01:50:46.732Z,5.52
2018-01-30T01:50:47.331Z,5.55
2018-01-30T01:50:47.932Z,5.52
2018-01-30T01:50:48.531Z,5.50
2018-01-30T01:51:43.012Z,5.56
2018-01-30T01:51:43.607Z,5.60
2018-01-30T01:51:44.206Z,5.56
2018-01-30T01:51:44.812Z,5.57
2018-01-30T01:51:45.406Z,5.63
2018-01-30T01:51:46.006Z,5.60
2018-01-30T01:51:46.606Z,5.59
2018-01-30T01:51:47.206Z,5.63
2018-01-30T01:52:41.687Z,5.66
2018-01-30T01:52:42.284Z,5.59
2018-01-30T01:52:42.883Z,5.57
2018-01-30T01:52:43.485Z,5.66
2018-01-30T01:52:44.102Z,5.57
2018-01-30T01:52:44.682Z,5.57
2018-01-30T01:52:45.283Z,5.59
2018-01-30T01:52:45.880Z,5.59
2018-01-30T01:53:39.339Z,5.60
2018-01-30T01:53:39.937Z,5.67
2018-01-30T01:53:40.535Z,5.56
2018-01-30T01:53:41.138Z,5.67
2018-01-30T01:53:41.736Z,5.64
2018-01-30T01:53:42.336Z,5.64
2018-01-30T01:53:42.937Z,5.63
2018-01-30T01:53:43.537Z,5.66
2018-01-30T01:54:36.990Z,5.66
2018-01-30T01:54:37.587Z,5.71
2018-01-30T01:54:38.187Z,5.70
2018-01-30T01:54:38.789Z,5.70
2018-01-30T01:54:39.387Z,5.67
2018-01-30T01:54:39.987Z,5.73
2018-01-30T01:54:40.596Z,5.70
2018-01-30T01:54:41.189Z,5.66
2018-01-30T01:55:34.642Z,5.63
2018-01-30T01:55:35.238Z,5.64
2018-01-30T01:55:35.840Z,5.66
2018-01-30T01:55:36.440Z,5.64
2018-01-30T01:55:37.038Z,5.70
2018-01-30T01:55:37.640Z,5.71
2018-01-30T01:55:38.237Z,5.68
2018-01-30T01:55:38.843Z,5.64
2018-01-30T01:56:32.319Z,5.66
2018-01-30T01:56:32.892Z,5.67
2018-01-30T01:56:33.491Z,5.73
2018-01-30T01:56:34.091Z,5.74
2018-01-30T01:56:34.691Z,5.68
2018-01-30T01:56:35.291Z,5.63
2018-01-30T01:56:35.901Z,5.66
2018-01-30T01:56:36.489Z,5.75
2018-01-30T01:57:31.482Z,5.66
2018-01-30T01:57:32.078Z,5.70
2018-01-30T01:57:32.677Z,5.64
2018-01-30T01:57:33.278Z,5.66
2018-01-30T01:57:33.877Z,5.73
2018-01-30T01:57:34.477Z,5.75
2018-01-30T01:58:29.441Z,5.63
2018-01-30T01:58:30.037Z,5.60
2018-01-30T01:58:30.636Z,5.60
2018-01-30T01:58:31.235Z,5.64
2018-01-30T01:58:31.835Z,5.68
2018-01-30T01:58:32.435Z,5.66
2018-01-30T01:58:33.036Z,5.68
2018-01-30T01:58:33.634Z,5.64
2018-01-30T01:59:27.093Z,5.52
2018-01-30T01:59:27.689Z,5.63
2018-01-30T01:59:28.288Z,5.57
2018-01-30T01:59:28.888Z,5.60
2018-01-30T01:59:29.489Z,5.60
2018-01-30T01:59:30.091Z,5.57
2018-01-30T01:59:30.687Z,5.60
2018-01-30T01:59:31.289Z,5.60
2018-01-30T02:00:24.744Z,5.50
2018-01-30T02:00:25.359Z,5.60
2018-01-30T02:00:25.943Z,5.63
2018-01-30T02:00:26.542Z,5.60
2018-01-30T02:00:27.140Z,5.70
2018-01-30T02:00:27.741Z,5.60
2018-01-30T02:00:28.344Z,5.63
2018-01-30T02:00:28.942Z,5.63
2018-01-30T02:01:22.428Z,5.59
2018-01-30T02:01:22.993Z,5.55
2018-01-30T02:01:23.593Z,5.64
2018-01-30T02:01:24.195Z,5.64
2018-01-30T02:01:24.793Z,5.59
2018-01-30T02:01:25.393Z,5.55
2018-01-30T02:01:25.997Z,5.63
2018-01-30T02:01:26.592Z,5.59
2018-01-30T02:02:20.561Z,5.63
2018-01-30T02:02:21.164Z,5.59
2018-01-30T02:02:21.755Z,5.59
2018-01-30T02:02:22.356Z,5.63
2018-01-30T02:02:22.955Z,5.63
2018-01-30T02:02:23.555Z,5.64
2018-01-30T02:02:24.156Z,5.60
2018-01-30T02:03:17.699Z,5.56
2018-01-30T02:03:18.296Z,5.63
2018-01-30T02:03:18.896Z,5.64
2018-01-30T02:03:19.496Z,5.57
2018-01-30T02:03:20.099Z,5.67
2018-01-30T02:03:20.697Z,5.55
2018-01-30T02:03:21.298Z,5.66
2018-01-30T02:03:21.897Z,5.60
2018-01-30T02:04:15.353Z,5.52
2018-01-30T02:04:15.948Z,5.63
2018-01-30T02:04:16.548Z,5.63
2018-01-30T02:04:17.149Z,5.67
2018-01-30T02:04:17.747Z,5.63
2018-01-30T02:04:18.347Z,5.60
2018-01-30T02:04:18.951Z,5.56
2018-01-30T02:04:19.547Z,5.63
2018-01-30T02:05:13.004Z,5.59
2018-01-30T02:05:13.600Z,5.57
2018-01-30T02:05:14.200Z,5.56
2018-01-30T02:05:14.799Z,5.66
2018-01-30T02:05:15.403Z,5.64
2018-01-30T02:05:16.000Z,5.64
2018-01-30T02:05:16.605Z,5.64
2018-01-30T02:05:17.199Z,5.52
2018-01-30T02:06:10.656Z,5.59
2018-01-30T02:06:11.252Z,5.55
2018-01-30T02:06:11.851Z,5.60
2018-01-30T02:06:12.451Z,5.57
2018-01-30T02:06:13.051Z,5.53
2018-01-30T02:06:13.652Z,5.57
2018-01-30T02:06:14.254Z,5.53
2018-01-30T02:06:14.851Z,5.56
2018-01-30T02:07:08.334Z,5.48
2018-01-30T02:07:08.905Z,5.49
2018-01-30T02:07:09.503Z,5.49
2018-01-30T02:07:10.103Z,5.49
2018-01-30T02:07:10.703Z,5.48
2018-01-30T02:07:11.304Z,5.48
2018-01-30T02:07:11.924Z,5.48
2018-01-30T02:07:12.502Z,5.63
2018-01-30T02:08:05.958Z,5.50
2018-01-30T02:08:06.553Z,5.48
2018-01-30T02:08:07.154Z,5.52
2018-01-30T02:08:07.765Z,5.45
2018-01-30T02:08:08.354Z,5.46
2018-01-30T02:08:08.954Z,5.45
2018-01-30T02:08:09.559Z,5.56
2018-01-30T02:08:10.155Z,5.46
2018-01-30T02:09:03.612Z,5.53
2018-01-30T02:09:04.206Z,5.55
2018-01-30T02:09:04.807Z,5.56
2018-01-30T02:09:05.405Z,5.52
2018-01-30T02:09:06.005Z,5.52
2018-01-30T02:09:06.606Z,5.49
2018-01-30T02:09:07.208Z,5.52
2018-01-30T02:09:07.835Z,5.52
2018-01-30T02:10:01.261Z,5.46
2018-01-30T02:10:01.858Z,5.50
2018-01-30T02:10:02.458Z,5.48
2018-01-30T02:10:03.057Z,5.53
2018-01-30T02:10:03.656Z,5.46
2018-01-30T02:10:04.258Z,5.50
2018-01-30T02:10:04.859Z,5.55
2018-01-30T02:10:05.481Z,5.49
2018-01-30T02:10:58.914Z,5.50
2018-01-30T02:10:59.510Z,5.49
2018-01-30T02:11:00.109Z,5.49
2018-01-30T02:11:00.709Z,5.50
2018-01-30T02:11:01.309Z,5.49
2018-01-30T02:11:01.909Z,5.50
2018-01-30T02:11:02.512Z,5.46
2018-01-30T02:11:03.109Z,5.52
2018-01-30T02:11:56.596Z,5.46
2018-01-30T02:11:57.162Z,5.48
2018-01-30T02:11:57.763Z,5.52
2018-01-30T02:11:58.365Z,5.48
2018-01-30T02:11:58.960Z,5.55
2018-01-30T02:11:59.560Z,5.48
2018-01-30T02:12:00.164Z,5.55
2018-01-30T02:12:00.763Z,5.52
2018-01-30T02:12:54.217Z,5.48
2018-01-30T02:12:54.812Z,5.50
2018-01-30T02:12:55.414Z,5.52
2018-01-30T02:12:56.015Z,5.53
2018-01-30T02:12:56.612Z,5.46
2018-01-30T02:12:57.212Z,5.48
2018-01-30T02:12:57.815Z,5.52
2018-01-30T02:12:58.412Z,5.48
2018-01-30T02:13:51.872Z,5.49
2018-01-30T02:13:52.465Z,5.50
2018-01-30T02:13:53.064Z,5.49
2018-01-30T02:13:53.663Z,5.46
2018-01-30T02:13:54.264Z,5.49
2018-01-30T02:13:54.868Z,5.50
2018-01-30T02:13:55.470Z,5.48
2018-01-30T02:13:56.064Z,5.50
2018-01-30T02:14:49.622Z,5.49
2018-01-30T02:14:50.220Z,5.41
2018-01-30T02:14:50.820Z,5.45
2018-01-30T02:14:51.419Z,5.46
2018-01-30T02:14:52.020Z,5.48
2018-01-30T02:14:52.620Z,5.48
2018-01-30T02:14:53.221Z,5.45
2018-01-30T02:14:53.818Z,5.49
2018-01-30T02:15:47.275Z,5.46
2018-01-30T02:15:47.873Z,5.49
2018-01-30T02:15:48.471Z,5.50
2018-01-30T02:15:49.070Z,5.49
2018-01-30T02:15:49.671Z,5.52
2018-01-30T02:15:50.277Z,5.48
2018-01-30T02:15:50.873Z,5.49
2018-01-30T02:15:51.470Z,5.50
2018-01-30T02:16:44.924Z,5.41
2018-01-30T02:16:45.522Z,5.38
2018-01-30T02:16:46.122Z,5.37
2018-01-30T02:16:46.721Z,5.46
2018-01-30T02:16:47.321Z,5.49
2018-01-30T02:16:47.922Z,5.37
2018-01-30T02:16:48.523Z,5.48
2018-01-30T02:16:49.122Z,5.45
2018-01-30T02:17:42.609Z,5.48
2018-01-30T02:17:43.177Z,5.46
2018-01-30T02:17:43.774Z,5.37
2018-01-30T02:17:44.374Z,5.37
2018-01-30T02:17:44.973Z,5.45
2018-01-30T02:17:45.573Z,5.46
2018-01-30T02:17:46.173Z,5.49
2018-01-30T02:17:46.773Z,5.52
2018-01-30T02:18:40.231Z,5.41
2018-01-30T02:18:40.825Z,5.43
2018-01-30T02:18:41.423Z,5.37
2018-01-30T02:18:42.036Z,5.49
2018-01-30T02:18:42.624Z,5.46
2018-01-30T02:18:43.226Z,5.41
2018-01-30T02:18:43.829Z,5.46
2018-01-30T02:18:44.426Z,5.50
2018-01-30T02:19:37.880Z,5.46
2018-01-30T02:19:38.475Z,5.50
2018-01-30T02:19:39.077Z,5.49
2018-01-30T02:19:39.677Z,5.48
2018-01-30T02:19:40.277Z,5.49
2018-01-30T02:19:40.878Z,5.49
2018-01-30T02:19:41.479Z,5.43
2018-01-30T02:19:42.075Z,5.43
2018-01-30T02:20:35.532Z,5.45
2018-01-30T02:20:36.129Z,5.48
2018-01-30T02:20:36.729Z,5.52
2018-01-30T02:20:37.328Z,5.50
2018-01-30T02:20:37.928Z,5.45
2018-01-30T02:20:38.532Z,5.46
2018-01-30T02:20:39.129Z,5.49
2018-01-30T02:20:39.727Z,5.46
2018-01-30T02:21:33.184Z,5.38
2018-01-30T02:21:33.781Z,5.45
2018-01-30T02:21:34.381Z,5.45
2018-01-30T02:21:34.980Z,5.48
2018-01-30T02:21:35.581Z,5.48
2018-01-30T02:21:36.183Z,5.49
2018-01-30T02:21:36.788Z,5.46
2018-01-30T02:21:37.379Z,5.43
2018-01-30T02:22:30.838Z,5.35
2018-01-30T02:22:31.431Z,5.55
2018-01-30T02:22:32.032Z,5.43
2018-01-30T02:22:32.632Z,5.45
2018-01-30T02:22:33.230Z,5.46
2018-01-30T02:22:33.833Z,5.43
2018-01-30T02:22:34.433Z,5.52
2018-01-30T02:22:35.032Z,5.45
2018-01-30T02:23:28.518Z,5.35
2018-01-30T02:23:29.084Z,5.38
2018-01-30T02:23:29.686Z,5.49
2018-01-30T02:23:30.284Z,5.45
2018-01-30T02:23:30.883Z,5.50
2018-01-30T02:23:31.486Z,5.40
2018-01-30T02:23:32.085Z,5.53
2018-01-30T02:23:32.682Z,5.45
2018-01-30T02:24:26.136Z,5.48
2018-01-30T02:24:26.735Z,5.41
2018-01-30T02:24:27.336Z,5.40
2018-01-30T02:24:27.935Z,5.40
2018-01-30T02:24:28.535Z,5.50
2018-01-30T02:24:29.137Z,5.45
2018-01-30T02:24:29.736Z,5.46
2018-01-30T02:24:30.352Z,5.35
2018-01-30T02:52:54.512Z,5.05
2018-01-30T02:52:55.083Z,5.16
2018-01-30T02:52:55.683Z,5.14
2018-01-30T02:52:56.283Z,5.05
2018-01-30T02:52:56.882Z,5.13
2018-01-30T02:52:57.484Z,5.12
2018-01-30T02:52:58.084Z,5.12
2018-01-30T02:52:58.682Z,5.04
2018-01-30T02:53:52.140Z,4.98
2018-01-30T02:53:52.735Z,5.14
2018-01-30T02:53:53.334Z,5.04
2018-01-30T02:53:53.935Z,4.96
2018-01-30T02:53:54.534Z,5.01
2018-01-30T02:53:55.134Z,5.02
2018-01-30T02:53:55.742Z,5.07
2018-01-30T02:53:56.335Z,5.07
2018-01-30T02:54:49.792Z,5.04
2018-01-30T02:54:50.388Z,5.02
2018-01-30T02:54:50.988Z,5.05
2018-01-30T02:54:51.595Z,5.14
2018-01-30T02:54:52.187Z,5.05
2018-01-30T02:54:52.786Z,5.05
2018-01-30T02:54:53.388Z,5.01
2018-01-30T02:54:53.989Z,4.96
2018-01-30T02:55:47.445Z,5.01
2018-01-30T02:55:48.040Z,5.05
2018-01-30T02:55:48.657Z,5.04
2018-01-30T02:55:49.239Z,5.05
2018-01-30T02:55:49.839Z,5.07
2018-01-30T02:55:50.440Z,5.02
2018-01-30T02:55:51.087Z,5.13
2018-01-30T02:55:51.671Z,4.98
2018-01-30T02:56:45.128Z,4.99
2018-01-30T02:56:45.692Z,5.05
2018-01-30T02:56:46.291Z,5.04
2018-01-30T02:56:46.889Z,5.07
2018-01-30T02:56:47.498Z,4.98
2018-01-30T02:56:48.099Z,5.07
2018-01-30T02:56:48.692Z,5.04
2018-01-30T02:56:49.292Z,5.04
2018-01-30T02:57:42.746Z,5.01
2018-01-30T02:57:43.343Z,5.01
2018-01-30T02:57:43.943Z,5.13
2018-01-30T02:57:44.547Z,5.02
2018-01-30T02:57:45.144Z,4.99
2018-01-30T02:57:45.744Z,5.01
2018-01-30T02:57:46.342Z,5.01
2018-01-30T02:57:46.943Z,5.02
2018-01-30T02:58:40.398Z,5.05
2018-01-30T02:58:40.996Z,5.01
2018-01-30T02:58:41.599Z,4.96
2018-01-30T02:58:42.195Z,5.02
2018-01-30T02:58:42.796Z,5.04
2018-01-30T02:58:43.398Z,5.07
2018-01-30T02:58:43.998Z,5.01
2018-01-30T02:58:44.594Z,5.02
2018-01-30T02:59:38.051Z,5.01
2018-01-30T02:59:38.650Z,5.02
2018-01-30T02:59:39.248Z,4.98
2018-01-30T02:59:39.847Z,5.04
2018-01-30T02:59:40.447Z,4.99
2018-01-30T02:59:41.050Z,5.05
2018-01-30T02:59:41.652Z,4.96
2018-01-30T02:59:42.247Z,4.99
2018-01-30T03:00:35.703Z,5.02
2018-01-30T03:00:36.300Z,4.99
2018-01-30T03:00:36.898Z,5.04
2018-01-30T03:00:37.501Z,4.96
2018-01-30T03:00:38.097Z,5.01
2018-01-30T03:00:38.703Z,5.04
2018-01-30T03:00:39.302Z,5.02
2018-01-30T03:00:39.899Z,5.05
2018-01-30T03:01:33.356Z,5.02
2018-01-30T03:01:33.951Z,4.99
2018-01-30T03:01:34.551Z,5.10
2018-01-30T03:01:35.154Z,5.01
2018-01-30T03:01:35.751Z,5.05
2018-01-30T03:01:36.350Z,5.02
2018-01-30T03:01:36.952Z,5.05
2018-01-30T03:01:37.550Z,5.04
2018-01-30T03:02:31.038Z,4.99
2018-01-30T03:02:31.603Z,5.04
2018-01-30T03:02:32.203Z,4.99
2018-01-30T03:02:32.804Z,5.04
2018-01-30T03:02:33.402Z,5.05
2018-01-30T03:02:34.008Z,5.02
2018-01-30T03:02:34.604Z,5.02
2018-01-30T03:02:35.207Z,5.04
2018-01-30T03:03:28.659Z,4.99
2018-01-30T03:03:29.255Z,5.02
2018-01-30T03:03:29.856Z,4.98
2018-01-30T03:03:30.454Z,5.01
2018-01-30T03:03:31.054Z,5.01
2018-01-30T03:03:31.655Z,5.05
2018-01-30T03:03:32.254Z,5.01
2018-01-30T03:03:32.854Z,5.02
2018-01-30T03:04:26.416Z,5.02
2018-01-30T03:04:27.010Z,5.01
2018-01-30T03:04:27.609Z,5.01
2018-01-30T03:04:28.209Z,5.02
2018-01-30T03:04:28.810Z,5.04
2018-01-30T03:04:29.410Z,5.02
2018-01-30T03:04:30.009Z,5.07
2018-01-30T03:04:30.609Z,5.07
2018-01-30T03:05:24.067Z,5.01
2018-01-30T03:05:24.661Z,5.05
2018-01-30T03:05:25.262Z,5.09
2018-01-30T03:05:25.863Z,5.04
2018-01-30T03:05:26.459Z,5.02
2018-01-30T03:05:27.061Z,5.02
2018-01-30T03:05:27.661Z,5.09
2018-01-30T03:05:28.259Z,5.07
2018-01-30T03:06:21.720Z,4.99
2018-01-30T03:06:22.312Z,5.02
2018-01-30T03:06:22.913Z,4.98
2018-01-30T03:06:23.512Z,4.99
2018-01-30T03:06:24.112Z,5.04
2018-01-30T03:06:24.712Z,5.02
2018-01-30T03:06:25.312Z,5.05
2018-01-30T03:06:25.910Z,4.98
2018-01-30T03:07:19.369Z,5.04
2018-01-30T03:07:19.964Z,4.96
2018-01-30T03:07:20.565Z,5.04
2018-01-30T03:07:21.163Z,5.05
2018-01-30T03:07:21.764Z,5.02
2018-01-30T03:07:22.364Z,5.05
2018-01-30T03:07:22.965Z,4.98
2018-01-30T03:07:23.563Z,5.04
2018-01-30T03:08:17.047Z,4.98
2018-01-30T03:08:17.615Z,5.05
2018-01-30T03:08:18.215Z,5.05
2018-01-30T03:08:18.817Z,4.94
2018-01-30T03:08:19.416Z,5.09
2018-01-30T03:08:20.016Z,5.07
2018-01-30T03:08:20.615Z,5.10
2018-01-30T03:08:21.215Z,4.98
2018-01-30T03:09:14.673Z,5.05
2018-01-30T03:09:15.267Z,5.16
2018-01-30T03:09:15.868Z,5.14
2018-01-30T03:09:16.467Z,5.09
2018-01-30T03:09:17.067Z,5.16
2018-01-30T03:09:17.668Z,5.05
2018-01-30T03:09:18.268Z,5.10
2018-01-30T03:09:18.867Z,5.01
2018-01-30T03:10:12.325Z,5.09
2018-01-30T03:10:12.919Z,5.07
2018-01-30T03:10:13.519Z,5.04
2018-01-30T03:10:14.119Z,5.07
2018-01-30T03:10:14.721Z,5.09
2018-01-30T03:10:15.317Z,5.04
2018-01-30T03:10:15.919Z,5.07
2018-01-30T03:10:16.516Z,5.09
2018-01-30T03:11:09.975Z,5.10
2018-01-30T03:11:10.572Z,5.14
2018-01-30T03:11:11.171Z,5.13
2018-01-30T03:11:11.772Z,5.16
2018-01-30T03:11:12.375Z,5.07
2018-01-30T03:11:12.971Z,5.02
2018-01-30T03:11:13.571Z,5.05
2018-01-30T03:11:14.170Z,5.07
2018-01-30T03:12:07.655Z,5.07
2018-01-30T03:12:08.222Z,5.02
2018-01-30T03:12:08.823Z,5.10
2018-01-30T03:12:09.422Z,5.14
2018-01-30T03:12:10.023Z,5.13
2018-01-30T03:12:10.621Z,5.17
2018-01-30T03:12:11.222Z,4.99
2018-01-30T03:12:11.822Z,5.10
2018-01-30T03:13:05.278Z,5.17
2018-01-30T03:13:05.874Z,5.20
2018-01-30T03:13:06.482Z,5.16
2018-01-30T03:13:07.075Z,5.10
2018-01-30T03:13:07.674Z,5.14
2018-01-30T03:13:08.275Z,5.17
2018-01-30T03:13:08.875Z,5.14
2018-01-30T03:13:09.474Z,5.13
2018-01-30T03:14:02.963Z,5.12
2018-01-30T03:14:03.526Z,5.13
2018-01-30T03:14:04.127Z,5.10
2018-01-30T03:14:04.725Z,5.10
2018-01-30T03:14:05.324Z,5.09
2018-01-30T03:14:05.927Z,5.16
2018-01-30T03:14:06.525Z,5.13
2018-01-30T03:14:07.125Z,5.17
2018-01-30T03:15:00.584Z,5.14
2018-01-30T03:15:01.178Z,5.13
2018-01-30T03:15:01.779Z,5.16
2018-01-30T03:15:02.377Z,5.10
2018-01-30T03:15:02.979Z,5.10
2018-01-30T03:15:03.584Z,5.19
2018-01-30T03:15:04.177Z,5.19
2018-01-30T03:15:04.776Z,5.22
2018-01-30T03:15:58.744Z,5.10
2018-01-30T03:15:59.340Z,5.19
2018-01-30T03:15:59.939Z,5.12
2018-01-30T03:16:00.542Z,5.14
2018-01-30T03:16:01.143Z,5.13
2018-01-30T03:16:01.740Z,5.22
2018-01-30T03:16:02.340Z,5.10
2018-01-30T03:16:55.782Z,5.25
2018-01-30T03:16:56.382Z,5.27
2018-01-30T03:16:56.979Z,5.19
2018-01-30T03:16:57.578Z,5.22
2018-01-30T03:16:58.177Z,5.25
2018-01-30T03:16:58.777Z,5.17
2018-01-30T03:16:59.378Z,5.20
2018-01-30T03:16:59.978Z,5.23
2018-01-30T03:17:53.440Z,5.23
2018-01-30T03:17:54.033Z,5.23
2018-01-30T03:17:54.631Z,5.20
2018-01-30T03:17:55.231Z,5.20
2018-01-30T03:17:55.829Z,5.23
2018-01-30T03:17:56.431Z,5.25
2018-01-30T03:17:57.030Z,5.22
2018-01-30T03:17:57.629Z,5.22
2018-01-30T03:18:52.622Z,5.23
2018-01-30T03:18:53.217Z,5.19
2018-01-30T03:18:53.816Z,5.22
2018-01-30T03:18:54.417Z,5.22
2018-01-30T03:18:55.017Z,5.25
2018-01-30T03:18:55.616Z,5.23
2018-01-30T03:18:56.216Z,5.17
2018-01-30T03:19:49.794Z,5.19
2018-01-30T03:19:50.359Z,5.27
2018-01-30T03:19:50.958Z,5.14
2018-01-30T03:19:51.559Z,5.16
2018-01-30T03:19:52.157Z,5.23
2018-01-30T03:19:52.759Z,5.20
2018-01-30T03:19:53.358Z,5.20
2018-01-30T03:19:53.958Z,5.23
2018-01-30T03:20:47.414Z,5.23
2018-01-30T03:20:48.009Z,5.20
2018-01-30T03:20:48.609Z,5.17
2018-01-30T03:20:49.210Z,5.22
2018-01-30T03:20:49.809Z,5.16
2018-01-30T03:20:50.412Z,5.17
2018-01-30T03:20:51.009Z,5.13
2018-01-30T03:20:51.609Z,5.22
2018-01-30T03:21:45.065Z,5.17
2018-01-30T03:21:45.661Z,5.19
2018-01-30T03:21:46.261Z,5.14
2018-01-30T03:21:46.861Z,5.19
2018-01-30T03:21:47.467Z,5.23
2018-01-30T03:21:48.061Z,5.14
2018-01-30T03:21:48.659Z,5.20
2018-01-30T03:21:49.260Z,5.28
2018-01-30T03:22:43.741Z,5.16
2018-01-30T03:22:44.337Z,5.22
2018-01-30T03:22:44.937Z,5.14
2018-01-30T03:22:45.537Z,5.19
2018-01-30T03:22:46.136Z,5.19
2018-01-30T03:22:46.739Z,5.19
2018-01-30T03:22:47.336Z,5.30
2018-01-30T03:22:47.936Z,5.19
2018-01-30T03:23:41.479Z,5.25
2018-01-30T03:23:41.990Z,5.19
2018-01-30T03:23:42.588Z,5.23
2018-01-30T03:23:43.188Z,5.22
2018-01-30T03:23:43.789Z,5.20
2018-01-30T03:23:44.390Z,5.22
2018-01-30T03:23:44.988Z,5.14
2018-01-30T03:23:45.587Z,5.22
2018-01-30T03:24:39.045Z,5.19
2018-01-30T03:24:39.640Z,5.25
2018-01-30T03:24:40.240Z,5.17
2018-01-30T03:24:40.841Z,5.25
2018-01-30T03:24:41.441Z,5.27
2018-01-30T03:24:42.041Z,5.19
2018-01-30T03:24:42.640Z,5.25
2018-01-30T03:24:43.239Z,5.19
2018-01-30T03:25:36.727Z,5.27
2018-01-30T03:25:37.293Z,5.19
2018-01-30T03:25:37.896Z,5.25
2018-01-30T03:25:38.493Z,5.30
2018-01-30T03:25:39.092Z,5.19
2018-01-30T03:25:39.693Z,5.19
2018-01-30T03:25:40.292Z,5.16
2018-01-30T03:25:40.893Z,5.31
2018-01-30T03:26:34.347Z,5.27
2018-01-30T03:26:34.947Z,5.23
2018-01-30T03:26:35.544Z,5.25
2018-01-30T03:26:36.144Z,5.22
2018-01-30T03:26:36.743Z,5.27
2018-01-30T03:26:37.344Z,5.31
2018-01-30T03:26:37.943Z,5.22
2018-01-30T03:26:38.544Z,5.31
2018-01-30T03:27:31.999Z,5.25
2018-01-30T03:27:32.595Z,5.30
2018-01-30T03:27:33.196Z,5.31
2018-01-30T03:27:33.796Z,5.32
2018-01-30T03:27:34.394Z,5.32
2018-01-30T03:27:34.995Z,5.32
2018-01-30T03:27:35.596Z,5.31
2018-01-30T03:27:36.194Z,5.31
2018-01-30T03:28:29.654Z,5.28
2018-01-30T03:28:30.248Z,5.30
2018-01-30T03:28:30.847Z,5.32
2018-01-30T03:28:31.448Z,5.35
2018-01-30T03:28:32.048Z,5.30
2018-01-30T03:28:32.648Z,5.30
2018-01-30T03:28:33.246Z,5.28
2018-01-30T03:28:33.848Z,5.34
2018-01-30T03:29:27.303Z,5.27
2018-01-30T03:29:27.898Z,5.27
2018-01-30T03:29:28.498Z,5.32
2018-01-30T03:29:29.099Z,5.30
2018-01-30T03:29:29.699Z,5.25
2018-01-30T03:29:30.329Z,5.25
2018-01-30T03:29:30.898Z,5.25
2018-01-30T03:29:31.499Z,5.31
2018-01-30T03:30:24.953Z,5.32
2018-01-30T03:30:25.551Z,5.31
2018-01-30T03:30:26.152Z,5.31
2018-01-30T03:30:26.752Z,5.28
2018-01-30T03:30:27.350Z,5.27
2018-01-30T03:30:27.952Z,5.28
2018-01-30T03:30:28.551Z,5.30
2018-01-30T03:30:29.149Z,5.32
2018-01-30T03:31:22.634Z,5.30
2018-01-30T03:31:23.204Z,5.32
2018-01-30T03:31:23.803Z,5.23
2018-01-30T03:31:24.406Z,5.27
2018-01-30T03:31:25.001Z,5.32
2018-01-30T03:31:25.602Z,5.31
2018-01-30T03:31:26.205Z,5.31
2018-01-30T03:31:26.802Z,5.32
2018-01-30T03:32:20.326Z,5.30
2018-01-30T03:32:20.862Z,5.31
2018-01-30T03:32:21.461Z,5.31
2018-01-30T03:32:22.061Z,5.28
2018-01-30T03:32:22.662Z,5.30
2018-01-30T03:32:23.261Z,5.20
2018-01-30T03:32:23.861Z,5.31
2018-01-30T03:32:24.460Z,5.30
2018-01-30T03:33:18.940Z,5.22
2018-01-30T03:33:19.538Z,5.30
2018-01-30T03:33:20.138Z,5.31
2018-01-30T03:33:20.739Z,5.23
2018-01-30T03:33:21.337Z,5.30
2018-01-30T03:33:21.936Z,5.30
2018-01-30T03:33:22.536Z,5.35
2018-01-30T03:33:23.136Z,5.32
2018-01-30T03:34:16.630Z,5.22
2018-01-30T03:34:17.190Z,5.25
2018-01-30T03:34:17.789Z,5.31
2018-01-30T03:34:18.389Z,5.34
2018-01-30T03:34:18.988Z,5.27
2018-01-30T03:34:19.590Z,5.22
2018-01-30T03:34:20.190Z,5.25
2018-01-30T03:34:20.789Z,5.27
2018-01-30T03:35:15.267Z,5.35
2018-01-30T03:35:15.865Z,5.23
2018-01-30T03:35:16.463Z,5.32
2018-01-30T03:35:17.064Z,5.35
2018-01-30T03:35:17.663Z,5.31
2018-01-30T03:35:18.264Z,5.35
2018-01-30T03:35:18.864Z,5.32
2018-01-30T03:35:19.463Z,5.31
2018-01-30T03:36:13.944Z,5.31
2018-01-30T03:36:14.543Z,5.23
2018-01-30T03:36:15.139Z,5.31
2018-01-30T03:36:15.740Z,5.27
2018-01-30T03:36:16.339Z,5.28
2018-01-30T03:36:16.938Z,5.31
2018-01-30T03:36:17.538Z,5.35
2018-01-30T03:36:18.138Z,5.30
2018-01-30T03:37:12.619Z,5.27
2018-01-30T03:37:13.216Z,5.28
2018-01-30T03:37:13.817Z,5.32
2018-01-30T03:37:14.415Z,5.28
2018-01-30T03:37:15.015Z,5.32
2018-01-30T03:37:15.615Z,5.32
2018-01-30T03:37:16.215Z,5.28
2018-01-30T03:37:16.816Z,5.28
2018-01-30T03:38:11.295Z,5.30
2018-01-30T03:38:11.892Z,5.30
2018-01-30T03:38:12.493Z,5.32
2018-01-30T03:38:13.093Z,5.35
2018-01-30T03:38:13.691Z,5.28
2018-01-30T03:38:14.290Z,5.32
2018-01-30T03:38:14.891Z,5.30
2018-01-30T03:38:15.490Z,5.23
2018-01-30T03:39:08.948Z,5.27
2018-01-30T03:39:09.545Z,5.31
2018-01-30T03:39:10.144Z,5.23
2018-01-30T03:39:10.743Z,5.28
2018-01-30T03:39:11.342Z,5.31
2018-01-30T03:39:11.943Z,5.28
2018-01-30T03:39:12.544Z,5.28
2018-01-30T03:39:13.144Z,5.31
2018-01-30T03:40:06.625Z,5.31
2018-01-30T03:40:07.196Z,5.34
2018-01-30T03:40:07.796Z,5.28
2018-01-30T03:40:08.397Z,5.31
2018-01-30T03:40:08.994Z,5.25
2018-01-30T03:40:09.596Z,5.32
2018-01-30T03:40:10.197Z,5.25
2018-01-30T03:40:10.795Z,5.31
2018-01-30T03:41:05.277Z,5.32
2018-01-30T03:41:05.874Z,5.30
2018-01-30T03:41:06.471Z,5.32
2018-01-30T03:41:07.070Z,5.32
2018-01-30T03:41:07.671Z,5.34
2018-01-30T03:41:08.270Z,5.28
2018-01-30T03:41:08.870Z,5.30
2018-01-30T03:41:09.470Z,5.34
2018-01-30T03:42:03.950Z,5.27
2018-01-30T03:42:04.553Z,5.34
2018-01-30T03:42:05.145Z,5.34
2018-01-30T03:42:05.745Z,5.30
2018-01-30T03:42:06.345Z,5.28
2018-01-30T03:42:06.951Z,5.28
2018-01-30T03:42:07.545Z,5.37
2018-01-30T03:42:08.144Z,5.25
2018-01-30T03:43:02.626Z,5.27
2018-01-30T03:43:03.222Z,5.31
2018-01-30T03:43:03.820Z,5.37
2018-01-30T03:43:04.420Z,5.32
2018-01-30T03:43:05.021Z,5.32